sensor_id;sensor_type;location;lat;lon;timestamp;P1;durP1;ratioP1;P2;durP2;ratioP2
76176;SDS011;64938;47.696;8.066;2023-05-02T00:00:09;10.27;;;9.27;;
76176;SDS011;64938;47.696;8.066;2023-05-02T00:02:35;18.60;;;9.83;;
76176;SDS011;64938;47.696;8.066;2023-05-02T00:05:01;11.40;;;10.30;;
76176;SDS011;64938;47.696;8.066;2023-05-02T00:07:29;9.83;;;8.83;;
76176;SDS011;64938;47.696;8.066;2023-05-02T00:09:58;9.10;;;8.20;;
76176;SDS011;64938;47.696;8.066;2023-05-02T00:12:31;6.53;;;6.03;;
76176;SDS011;64938;47.696;8.066;2023-05-02T00:14:57;7.13;;;6.57;;
76176;SDS011;64938;47.696;8.066;2023-05-02T00:17:23;6.77;;;6.27;;
76176;SDS011;64938;47.696;8.066;2023-05-02T00:19:49;7.20;;;6.60;;
76176;SDS011;64938;47.696;8.066;2023-05-02T00:22:15;7.00;;;6.40;;
76176;SDS011;64938;47.696;8.066;2023-05-02T00:24:45;7.10;;;6.40;;
76176;SDS011;64938;47.696;8.066;2023-05-02T00:27:11;7.30;;;6.70;;
76176;SDS011;64938;47.696;8.066;2023-05-02T00:29:36;8.07;;;7.37;;
76176;SDS011;64938;47.696;8.066;2023-05-02T00:32:02;7.80;;;7.10;;
76176;SDS011;64938;47.696;8.066;2023-05-02T00:34:30;8.10;;;7.40;;
76176;SDS011;64938;47.696;8.066;2023-05-02T00:36:55;7.93;;;7.13;;
76176;SDS011;64938;47.696;8.066;2023-05-02T00:39:21;8.90;;;7.97;;
76176;SDS011;64938;47.696;8.066;2023-05-02T00:41:46;9.90;;;8.90;;
76176;SDS011;64938;47.696;8.066;2023-05-02T00:44:12;9.37;;;8.33;;
76176;SDS011;64938;47.696;8.066;2023-05-02T00:46:38;10.07;;;8.57;;
76176;SDS011;64938;47.696;8.066;2023-05-02T00:49:03;10.53;;;9.63;;
76176;SDS011;64938;47.696;8.066;2023-05-02T00:51:29;10.50;;;9.53;;
76176;SDS011;64938;47.696;8.066;2023-05-02T00:53:56;9.77;;;8.80;;
76176;SDS011;64938;47.696;8.066;2023-05-02T00:56:22;10.03;;;9.13;;
76176;SDS011;64938;47.696;8.066;2023-05-02T00:58:47;9.57;;;8.70;;
76176;SDS011;64938;47.696;8.066;2023-05-02T01:01:39;9.77;;;8.87;;
76176;SDS011;64938;47.696;8.066;2023-05-02T01:04:53;11.70;;;10.60;;
76176;SDS011;64938;47.696;8.066;2023-05-02T01:07:17;10.00;;;9.00;;
76176;SDS011;64938;47.696;8.066;2023-05-02T01:13:06;10.77;;;9.70;;
76176;SDS011;64938;47.696;8.066;2023-05-02T01:15:35;11.37;;;10.17;;
76176;SDS011;64938;47.696;8.066;2023-05-02T01:18:02;12.27;;;11.03;;
76176;SDS011;64938;47.696;8.066;2023-05-02T01:20:29;10.03;;;9.13;;
76176;SDS011;64938;47.696;8.066;2023-05-02T01:22:59;10.27;;;9.30;;
76176;SDS011;64938;47.696;8.066;2023-05-02T01:30:33;12.53;;;10.47;;
76176;SDS011;64938;47.696;8.066;2023-05-02T01:33:00;11.37;;;10.27;;
76176;SDS011;64938;47.696;8.066;2023-05-02T01:35:26;10.90;;;9.90;;
76176;SDS011;64938;47.696;8.066;2023-05-02T01:37:53;11.13;;;10.13;;
76176;SDS011;64938;47.696;8.066;2023-05-02T01:40:20;11.23;;;9.97;;
76176;SDS011;64938;47.696;8.066;2023-05-02T01:42:49;10.20;;;9.13;;
76176;SDS011;64938;47.696;8.066;2023-05-02T01:45:16;10.87;;;9.90;;
76176;SDS011;64938;47.696;8.066;2023-05-02T01:47:43;10.20;;;9.20;;
76176;SDS011;64938;47.696;8.066;2023-05-02T01:50:10;11.20;;;9.97;;
76176;SDS011;64938;47.696;8.066;2023-05-02T01:52:37;9.80;;;8.80;;
76176;SDS011;64938;47.696;8.066;2023-05-02T01:55:05;9.27;;;8.47;;
76176;SDS011;64938;47.696;8.066;2023-05-02T01:57:33;9.43;;;8.53;;
76176;SDS011;64938;47.696;8.066;2023-05-02T01:59:59;10.07;;;9.07;;
76176;SDS011;64938;47.696;8.066;2023-05-02T02:02:25;11.47;;;10.30;;
76176;SDS011;64938;47.696;8.066;2023-05-02T02:04:52;10.67;;;9.77;;
76176;SDS011;64938;47.696;8.066;2023-05-02T02:07:18;11.90;;;10.80;;
76176;SDS011;64938;47.696;8.066;2023-05-02T02:09:44;10.60;;;9.60;;
76176;SDS011;64938;47.696;8.066;2023-05-02T02:12:11;11.30;;;10.20;;
76176;SDS011;64938;47.696;8.066;2023-05-02T02:14:40;11.07;;;10.07;;
76176;SDS011;64938;47.696;8.066;2023-05-02T02:17:12;11.97;;;10.77;;
76176;SDS011;64938;47.696;8.066;2023-05-02T02:19:46;13.10;;;10.83;;
76176;SDS011;64938;47.696;8.066;2023-05-02T02:22:12;12.77;;;11.37;;
76176;SDS011;64938;47.696;8.066;2023-05-02T02:24:38;11.87;;;10.70;;
76176;SDS011;64938;47.696;8.066;2023-05-02T02:27:04;11.43;;;10.27;;
76176;SDS011;64938;47.696;8.066;2023-05-02T02:29:31;11.27;;;10.20;;
76176;SDS011;64938;47.696;8.066;2023-05-02T02:31:57;11.47;;;10.43;;
76176;SDS011;64938;47.696;8.066;2023-05-02T02:34:22;11.77;;;10.57;;
76176;SDS011;64938;47.696;8.066;2023-05-02T02:37:05;11.60;;;10.40;;
76176;SDS011;64938;47.696;8.066;2023-05-02T02:42:20;11.90;;;10.63;;
76176;SDS011;64938;47.696;8.066;2023-05-02T02:50:50;11.57;;;10.37;;
76176;SDS011;64938;47.696;8.066;2023-05-02T02:53:04;11.70;;;10.57;;
76176;SDS011;64938;47.696;8.066;2023-05-02T02:55:39;13.83;;;11.20;;
76176;SDS011;64938;47.696;8.066;2023-05-02T03:00:51;13.07;;;11.77;;
76176;SDS011;64938;47.696;8.066;2023-05-02T03:03:17;11.87;;;10.67;;
76176;SDS011;64938;47.696;8.066;2023-05-02T03:05:44;12.40;;;11.10;;
76176;SDS011;64938;47.696;8.066;2023-05-02T03:08:10;11.97;;;10.87;;
76176;SDS011;64938;47.696;8.066;2023-05-02T03:10:36;11.83;;;10.60;;
76176;SDS011;64938;47.696;8.066;2023-05-02T03:13:01;11.47;;;10.37;;
76176;SDS011;64938;47.696;8.066;2023-05-02T03:18:18;12.03;;;10.83;;
76176;SDS011;64938;47.696;8.066;2023-05-02T03:20:44;11.50;;;10.50;;
76176;SDS011;64938;47.696;8.066;2023-05-02T03:23:09;10.83;;;9.83;;
76176;SDS011;64938;47.696;8.066;2023-05-02T03:25:35;10.77;;;9.67;;
76176;SDS011;64938;47.696;8.066;2023-05-02T03:28:01;10.57;;;9.57;;
76176;SDS011;64938;47.696;8.066;2023-05-02T03:30:27;10.23;;;9.37;;
76176;SDS011;64938;47.696;8.066;2023-05-02T03:32:52;9.20;;;8.40;;
76176;SDS011;64938;47.696;8.066;2023-05-02T03:35:18;10.80;;;9.80;;
76176;SDS011;64938;47.696;8.066;2023-05-02T03:37:44;10.07;;;9.13;;
76176;SDS011;64938;47.696;8.066;2023-05-02T03:40:09;10.20;;;9.30;;
76176;SDS011;64938;47.696;8.066;2023-05-02T03:42:35;10.00;;;8.90;;
76176;SDS011;64938;47.696;8.066;2023-05-02T03:45:07;10.80;;;9.90;;
76176;SDS011;64938;47.696;8.066;2023-05-02T03:47:33;9.07;;;8.27;;
76176;SDS011;64938;47.696;8.066;2023-05-02T03:50:00;9.20;;;8.30;;
76176;SDS011;64938;47.696;8.066;2023-05-02T03:52:27;11.63;;;10.53;;
76176;SDS011;64938;47.696;8.066;2023-05-02T03:54:53;10.70;;;9.70;;
76176;SDS011;64938;47.696;8.066;2023-05-02T03:57:18;11.77;;;10.67;;
76176;SDS011;64938;47.696;8.066;2023-05-02T03:59:44;10.63;;;9.17;;
76176;SDS011;64938;47.696;8.066;2023-05-02T04:02:10;10.67;;;9.67;;
76176;SDS011;64938;47.696;8.066;2023-05-02T04:04:38;11.20;;;10.10;;
76176;SDS011;64938;47.696;8.066;2023-05-02T04:07:05;14.23;;;12.30;;
76176;SDS011;64938;47.696;8.066;2023-05-02T04:09:32;12.43;;;11.33;;
76176;SDS011;64938;47.696;8.066;2023-05-02T04:11:58;12.93;;;11.83;;
76176;SDS011;64938;47.696;8.066;2023-05-02T04:14:23;12.10;;;10.90;;
76176;SDS011;64938;47.696;8.066;2023-05-02T04:16:49;12.30;;;10.97;;
76176;SDS011;64938;47.696;8.066;2023-05-02T04:19:19;12.30;;;11.00;;
76176;SDS011;64938;47.696;8.066;2023-05-02T04:21:45;12.73;;;11.30;;
76176;SDS011;64938;47.696;8.066;2023-05-02T04:24:12;13.10;;;11.70;;
76176;SDS011;64938;47.696;8.066;2023-05-02T04:26:39;13.70;;;11.63;;
76176;SDS011;64938;47.696;8.066;2023-05-02T04:29:07;13.37;;;11.97;;
76176;SDS011;64938;47.696;8.066;2023-05-02T04:31:33;12.87;;;11.10;;
76176;SDS011;64938;47.696;8.066;2023-05-02T04:33:59;12.70;;;11.50;;
76176;SDS011;64938;47.696;8.066;2023-05-02T04:36:26;13.00;;;11.70;;
76176;SDS011;64938;47.696;8.066;2023-05-02T04:38:52;13.40;;;12.10;;
76176;SDS011;64938;47.696;8.066;2023-05-02T04:41:18;13.90;;;11.87;;
76176;SDS011;64938;47.696;8.066;2023-05-02T04:43:43;13.67;;;12.27;;
76176;SDS011;64938;47.696;8.066;2023-05-02T04:46:09;15.40;;;13.80;;
76176;SDS011;64938;47.696;8.066;2023-05-02T04:48:35;16.53;;;14.77;;
76176;SDS011;64938;47.696;8.066;2023-05-02T04:51:00;17.73;;;15.83;;
76176;SDS011;64938;47.696;8.066;2023-05-02T04:53:26;19.03;;;15.80;;
76176;SDS011;64938;47.696;8.066;2023-05-02T04:55:52;16.23;;;14.53;;
76176;SDS011;64938;47.696;8.066;2023-05-02T04:58:18;16.00;;;14.37;;
76176;SDS011;64938;47.696;8.066;2023-05-02T05:00:44;15.07;;;13.40;;
76176;SDS011;64938;47.696;8.066;2023-05-02T05:03:09;14.63;;;13.17;;
76176;SDS011;64938;47.696;8.066;2023-05-02T05:05:35;14.73;;;13.23;;
76176;SDS011;64938;47.696;8.066;2023-05-02T05:08:00;13.80;;;12.40;;
76176;SDS011;64938;47.696;8.066;2023-05-02T05:10:26;13.50;;;12.10;;
76176;SDS011;64938;47.696;8.066;2023-05-02T05:12:52;13.27;;;11.87;;
76176;SDS011;64938;47.696;8.066;2023-05-02T05:15:17;12.10;;;10.90;;
76176;SDS011;64938;47.696;8.066;2023-05-02T05:17:46;12.63;;;10.97;;
76176;SDS011;64938;47.696;8.066;2023-05-02T05:20:12;12.87;;;11.57;;
76176;SDS011;64938;47.696;8.066;2023-05-02T05:22:39;12.53;;;11.37;;
76176;SDS011;64938;47.696;8.066;2023-05-02T05:25:06;12.50;;;11.30;;
76176;SDS011;64938;47.696;8.066;2023-05-02T05:27:35;11.27;;;10.03;;
76176;SDS011;64938;47.696;8.066;2023-05-02T05:30:02;11.27;;;10.27;;
76176;SDS011;64938;47.696;8.066;2023-05-02T05:32:28;11.30;;;10.30;;
76176;SDS011;64938;47.696;8.066;2023-05-02T05:34:54;12.10;;;10.93;;
76176;SDS011;64938;47.696;8.066;2023-05-02T05:37:20;11.60;;;10.50;;
76176;SDS011;64938;47.696;8.066;2023-05-02T05:39:46;11.60;;;10.50;;
76176;SDS011;64938;47.696;8.066;2023-05-02T05:42:11;11.00;;;10.00;;
76176;SDS011;64938;47.696;8.066;2023-05-02T05:44:38;10.60;;;9.63;;
76176;SDS011;64938;47.696;8.066;2023-05-02T05:47:04;10.73;;;9.80;;
76176;SDS011;64938;47.696;8.066;2023-05-02T05:49:36;11.50;;;10.40;;
76176;SDS011;64938;47.696;8.066;2023-05-02T05:52:02;12.80;;;11.60;;
76176;SDS011;64938;47.696;8.066;2023-05-02T05:54:28;11.00;;;10.07;;
76176;SDS011;64938;47.696;8.066;2023-05-02T05:56:56;10.33;;;9.33;;
76176;SDS011;64938;47.696;8.066;2023-05-02T05:59:22;10.50;;;9.40;;
76176;SDS011;64938;47.696;8.066;2023-05-02T06:01:47;9.50;;;8.70;;
76176;SDS011;64938;47.696;8.066;2023-05-02T06:04:13;9.03;;;8.23;;
76176;SDS011;64938;47.696;8.066;2023-05-02T06:06:38;7.97;;;7.27;;
76176;SDS011;64938;47.696;8.066;2023-05-02T06:09:04;7.77;;;7.17;;
76176;SDS011;64938;47.696;8.066;2023-05-02T06:11:30;7.97;;;7.27;;
76176;SDS011;64938;47.696;8.066;2023-05-02T06:13:55;7.50;;;6.90;;
76176;SDS011;64938;47.696;8.066;2023-05-02T06:16:21;6.87;;;6.27;;
76176;SDS011;64938;47.696;8.066;2023-05-02T06:18:49;7.50;;;7.00;;
76176;SDS011;64938;47.696;8.066;2023-05-02T06:21:15;7.43;;;6.83;;
76176;SDS011;64938;47.696;8.066;2023-05-02T06:23:41;7.80;;;7.10;;
76176;SDS011;64938;47.696;8.066;2023-05-02T06:26:07;7.40;;;6.90;;
76176;SDS011;64938;47.696;8.066;2023-05-02T06:28:34;8.23;;;7.63;;
76176;SDS011;64938;47.696;8.066;2023-05-02T06:31:00;9.03;;;8.30;;
76176;SDS011;64938;47.696;8.066;2023-05-02T06:33:27;9.37;;;8.57;;
76176;SDS011;64938;47.696;8.066;2023-05-02T06:35:54;10.03;;;9.17;;
76176;SDS011;64938;47.696;8.066;2023-05-02T06:38:20;9.57;;;8.67;;
76176;SDS011;64938;47.696;8.066;2023-05-02T06:40:45;10.27;;;9.47;;
76176;SDS011;64938;47.696;8.066;2023-05-02T06:43:11;10.00;;;9.10;;
76176;SDS011;64938;47.696;8.066;2023-05-02T06:45:37;10.20;;;9.30;;
76176;SDS011;64938;47.696;8.066;2023-05-02T06:48:04;10.20;;;9.30;;
76176;SDS011;64938;47.696;8.066;2023-05-02T06:50:29;10.30;;;9.40;;
76176;SDS011;64938;47.696;8.066;2023-05-02T06:52:55;10.40;;;9.50;;
76176;SDS011;64938;47.696;8.066;2023-05-02T06:55:21;9.33;;;8.63;;
76176;SDS011;64938;47.696;8.066;2023-05-02T06:57:49;10.10;;;9.20;;
76176;SDS011;64938;47.696;8.066;2023-05-02T07:00:16;9.07;;;8.27;;
76176;SDS011;64938;47.696;8.066;2023-05-02T07:02:46;10.00;;;9.13;;
76176;SDS011;64938;47.696;8.066;2023-05-02T07:05:13;9.30;;;8.50;;
76176;SDS011;64938;47.696;8.066;2023-05-02T07:07:46;8.87;;;8.10;;
76176;SDS011;64938;47.696;8.066;2023-05-02T07:10:11;9.60;;;8.80;;
76176;SDS011;64938;47.696;8.066;2023-05-02T07:12:37;9.47;;;8.67;;
76176;SDS011;64938;47.696;8.066;2023-05-02T07:15:06;9.80;;;9.00;;
76176;SDS011;64938;47.696;8.066;2023-05-02T07:17:33;8.23;;;7.53;;
76176;SDS011;64938;47.696;8.066;2023-05-02T07:20:17;7.40;;;6.77;;
76176;SDS011;64938;47.696;8.066;2023-05-02T07:22:43;8.30;;;7.70;;
76176;SDS011;64938;47.696;8.066;2023-05-02T07:25:09;7.97;;;7.37;;
76176;SDS011;64938;47.696;8.066;2023-05-02T07:27:35;8.43;;;7.73;;
76176;SDS011;64938;47.696;8.066;2023-05-02T07:30:00;7.67;;;7.03;;
76176;SDS011;64938;47.696;8.066;2023-05-02T07:32:26;6.97;;;6.33;;
76176;SDS011;64938;47.696;8.066;2023-05-02T07:34:52;8.27;;;7.47;;
76176;SDS011;64938;47.696;8.066;2023-05-02T07:37:19;7.40;;;6.80;;
76176;SDS011;64938;47.696;8.066;2023-05-02T07:39:45;7.40;;;6.80;;
76176;SDS011;64938;47.696;8.066;2023-05-02T07:42:10;7.33;;;6.73;;
76176;SDS011;64938;47.696;8.066;2023-05-02T07:44:36;8.00;;;7.40;;
76176;SDS011;64938;47.696;8.066;2023-05-02T07:47:01;7.27;;;6.67;;
76176;SDS011;64938;47.696;8.066;2023-05-02T07:49:27;8.13;;;7.40;;
76176;SDS011;64938;47.696;8.066;2023-05-02T07:51:53;7.70;;;7.10;;
76176;SDS011;64938;47.696;8.066;2023-05-02T07:54:19;7.70;;;7.10;;
76176;SDS011;64938;47.696;8.066;2023-05-02T07:56:45;8.37;;;7.67;;
76176;SDS011;64938;47.696;8.066;2023-05-02T07:59:14;8.93;;;8.10;;
76176;SDS011;64938;47.696;8.066;2023-05-02T08:01:40;7.87;;;7.27;;
76176;SDS011;64938;47.696;8.066;2023-05-02T08:04:06;7.20;;;6.60;;
76176;SDS011;64938;47.696;8.066;2023-05-02T08:06:36;7.87;;;7.27;;
76176;SDS011;64938;47.696;8.066;2023-05-02T08:09:05;7.33;;;6.83;;
76176;SDS011;64938;47.696;8.066;2023-05-02T08:11:30;7.30;;;6.80;;
76176;SDS011;64938;47.696;8.066;2023-05-02T08:13:58;7.90;;;7.30;;
76176;SDS011;64938;47.696;8.066;2023-05-02T08:16:23;7.50;;;6.80;;
76176;SDS011;64938;47.696;8.066;2023-05-02T08:18:49;7.90;;;7.20;;
76176;SDS011;64938;47.696;8.066;2023-05-02T08:21:14;7.40;;;6.90;;
76176;SDS011;64938;47.696;8.066;2023-05-02T08:23:40;7.80;;;7.20;;
76176;SDS011;64938;47.696;8.066;2023-05-02T08:26:06;8.03;;;7.43;;
76176;SDS011;64938;47.696;8.066;2023-05-02T08:28:31;8.10;;;7.40;;
76176;SDS011;64938;47.696;8.066;2023-05-02T08:30:57;8.93;;;8.13;;
76176;SDS011;64938;47.696;8.066;2023-05-02T08:33:23;8.73;;;8.03;;
76176;SDS011;64938;47.696;8.066;2023-05-02T08:35:49;8.57;;;7.87;;
76176;SDS011;64938;47.696;8.066;2023-05-02T08:38:15;9.17;;;8.37;;
76176;SDS011;64938;47.696;8.066;2023-05-02T08:40:41;8.80;;;8.00;;
76176;SDS011;64938;47.696;8.066;2023-05-02T08:43:07;9.17;;;8.37;;
76176;SDS011;64938;47.696;8.066;2023-05-02T08:45:38;8.53;;;7.63;;
76176;SDS011;64938;47.696;8.066;2023-05-02T08:48:05;8.73;;;7.93;;
76176;SDS011;64938;47.696;8.066;2023-05-02T08:50:33;9.33;;;8.53;;
76176;SDS011;64938;47.696;8.066;2023-05-02T08:53:06;9.23;;;8.40;;
76176;SDS011;64938;47.696;8.066;2023-05-02T08:55:33;8.80;;;8.10;;
76176;SDS011;64938;47.696;8.066;2023-05-02T08:57:59;9.13;;;8.23;;
76176;SDS011;64938;47.696;8.066;2023-05-02T09:00:26;8.80;;;8.10;;
76176;SDS011;64938;47.696;8.066;2023-05-02T09:02:57;9.43;;;8.33;;
76176;SDS011;64938;47.696;8.066;2023-05-02T09:05:29;8.73;;;8.03;;
76176;SDS011;64938;47.696;8.066;2023-05-02T09:07:59;7.87;;;7.30;;
76176;SDS011;64938;47.696;8.066;2023-05-02T09:10:25;8.70;;;7.90;;
76176;SDS011;64938;47.696;8.066;2023-05-02T09:12:52;8.73;;;8.03;;
76176;SDS011;64938;47.696;8.066;2023-05-02T09:15:18;8.33;;;7.73;;
76176;SDS011;64938;47.696;8.066;2023-05-02T09:17:45;8.53;;;7.90;;
76176;SDS011;64938;47.696;8.066;2023-05-02T09:20:12;9.30;;;8.50;;
76176;SDS011;64938;47.696;8.066;2023-05-02T09:22:50;8.70;;;8.00;;
76176;SDS011;64938;47.696;8.066;2023-05-02T09:25:16;8.17;;;7.47;;
76176;SDS011;64938;47.696;8.066;2023-05-02T09:27:53;9.30;;;8.60;;
76176;SDS011;64938;47.696;8.066;2023-05-02T09:32:46;9.67;;;8.77;;
76176;SDS011;64938;47.696;8.066;2023-05-02T09:35:15;10.80;;;9.87;;
76176;SDS011;64938;47.696;8.066;2023-05-02T09:37:57;9.80;;;9.00;;
76176;SDS011;64938;47.696;8.066;2023-05-02T09:40:23;10.50;;;9.60;;
76176;SDS011;64938;47.696;8.066;2023-05-02T09:42:50;11.77;;;10.77;;
76176;SDS011;64938;47.696;8.066;2023-05-02T09:45:19;12.70;;;11.33;;
76176;SDS011;64938;47.696;8.066;2023-05-02T09:47:46;11.60;;;10.50;;
76176;SDS011;64938;47.696;8.066;2023-05-02T09:50:30;11.03;;;10.13;;
76176;SDS011;64938;47.696;8.066;2023-05-02T09:53:08;12.27;;;11.07;;
76176;SDS011;64938;47.696;8.066;2023-05-02T09:55:35;11.20;;;10.20;;
76176;SDS011;64938;47.696;8.066;2023-05-02T09:58:00;11.43;;;10.40;;
76176;SDS011;64938;47.696;8.066;2023-05-02T10:00:39;11.63;;;10.43;;
76176;SDS011;64938;47.696;8.066;2023-05-02T10:03:07;11.03;;;10.00;;
76176;SDS011;64938;47.696;8.066;2023-05-02T10:05:35;10.60;;;9.70;;
76176;SDS011;64938;47.696;8.066;2023-05-02T10:08:03;10.37;;;9.53;;
76176;SDS011;64938;47.696;8.066;2023-05-02T10:10:34;10.33;;;9.33;;
76176;SDS011;64938;47.696;8.066;2023-05-02T10:13:02;10.67;;;9.60;;
76176;SDS011;64938;47.696;8.066;2023-05-02T10:15:28;12.10;;;11.00;;
76176;SDS011;64938;47.696;8.066;2023-05-02T10:17:55;10.23;;;9.43;;
76176;SDS011;64938;47.696;8.066;2023-05-02T10:20:24;10.47;;;9.57;;
76176;SDS011;64938;47.696;8.066;2023-05-02T10:22:57;11.43;;;10.03;;
76176;SDS011;64938;47.696;8.066;2023-05-02T10:25:23;10.87;;;9.70;;
76176;SDS011;64938;47.696;8.066;2023-05-02T10:27:49;9.80;;;8.90;;
76176;SDS011;64938;47.696;8.066;2023-05-02T10:30:15;12.03;;;9.43;;
76176;SDS011;64938;47.696;8.066;2023-05-02T10:32:41;10.53;;;9.67;;
76176;SDS011;64938;47.696;8.066;2023-05-02T10:35:10;11.37;;;10.40;;
76176;SDS011;64938;47.696;8.066;2023-05-02T10:37:37;10.30;;;9.33;;
76176;SDS011;64938;47.696;8.066;2023-05-02T10:40:09;11.00;;;10.10;;
76176;SDS011;64938;47.696;8.066;2023-05-02T10:42:39;9.73;;;8.90;;
76176;SDS011;64938;47.696;8.066;2023-05-02T10:48:19;9.23;;;8.33;;
76176;SDS011;64938;47.696;8.066;2023-05-02T10:50:50;9.50;;;8.60;;
76176;SDS011;64938;47.696;8.066;2023-05-02T10:53:27;9.23;;;8.43;;
76176;SDS011;64938;47.696;8.066;2023-05-02T10:58:42;10.57;;;9.70;;
76176;SDS011;64938;47.696;8.066;2023-05-02T11:03:55;10.00;;;9.20;;
76176;SDS011;64938;47.696;8.066;2023-05-02T11:06:31;10.20;;;9.10;;
76176;SDS011;64938;47.696;8.066;2023-05-02T11:11:53;9.67;;;8.83;;
76176;SDS011;64938;47.696;8.066;2023-05-02T11:24:43;8.47;;;7.77;;
76176;SDS011;64938;47.696;8.066;2023-05-02T11:32:24;8.80;;;7.83;;
76176;SDS011;64938;47.696;8.066;2023-05-02T11:34:51;9.17;;;8.37;;
76176;SDS011;64938;47.696;8.066;2023-05-02T11:37:17;8.87;;;8.17;;
76176;SDS011;64938;47.696;8.066;2023-05-02T11:39:44;8.43;;;7.67;;
76176;SDS011;64938;47.696;8.066;2023-05-02T11:42:29;8.50;;;7.80;;
76176;SDS011;64938;47.696;8.066;2023-05-02T11:44:55;8.30;;;7.57;;
76176;SDS011;64938;47.696;8.066;2023-05-02T11:47:22;7.07;;;5.80;;
76176;SDS011;64938;47.696;8.066;2023-05-02T11:49:50;7.30;;;6.70;;
76176;SDS011;64938;47.696;8.066;2023-05-02T11:52:16;6.30;;;5.70;;
76176;SDS011;64938;47.696;8.066;2023-05-02T11:54:41;6.20;;;5.70;;
76176;SDS011;64938;47.696;8.066;2023-05-02T11:57:07;7.50;;;6.90;;
76176;SDS011;64938;47.696;8.066;2023-05-02T11:59:52;6.73;;;6.13;;
76176;SDS011;64938;47.696;8.066;2023-05-02T12:02:18;7.10;;;6.60;;
76176;SDS011;64938;47.696;8.066;2023-05-02T12:04:45;6.27;;;5.73;;
76176;SDS011;64938;47.696;8.066;2023-05-02T12:07:11;6.73;;;6.23;;
76176;SDS011;64938;47.696;8.066;2023-05-02T12:09:52;5.90;;;5.50;;
76176;SDS011;64938;47.696;8.066;2023-05-02T12:12:19;6.30;;;5.70;;
76176;SDS011;64938;47.696;8.066;2023-05-02T12:14:45;6.40;;;5.90;;
76176;SDS011;64938;47.696;8.066;2023-05-02T12:17:11;6.10;;;5.60;;
76176;SDS011;64938;47.696;8.066;2023-05-02T12:19:37;6.93;;;6.23;;
76176;SDS011;64938;47.696;8.066;2023-05-02T12:22:03;7.40;;;6.70;;
76176;SDS011;64938;47.696;8.066;2023-05-02T12:24:29;6.03;;;5.20;;
76176;SDS011;64938;47.696;8.066;2023-05-02T12:27:10;6.07;;;5.57;;
76176;SDS011;64938;47.696;8.066;2023-05-02T12:29:41;5.90;;;5.40;;
76176;SDS011;64938;47.696;8.066;2023-05-02T12:32:11;6.20;;;5.70;;
76176;SDS011;64938;47.696;8.066;2023-05-02T12:34:37;6.00;;;5.50;;
76176;SDS011;64938;47.696;8.066;2023-05-02T12:37:03;5.93;;;5.43;;
76176;SDS011;64938;47.696;8.066;2023-05-02T12:39:41;5.50;;;5.10;;
76176;SDS011;64938;47.696;8.066;2023-05-02T12:42:08;5.70;;;4.90;;
76176;SDS011;64938;47.696;8.066;2023-05-02T12:44:35;4.47;;;4.07;;
76176;SDS011;64938;47.696;8.066;2023-05-02T12:47:04;4.10;;;3.80;;
76176;SDS011;64938;47.696;8.066;2023-05-02T12:49:31;5.23;;;4.83;;
76176;SDS011;64938;47.696;8.066;2023-05-02T12:51:56;5.10;;;4.60;;
76176;SDS011;64938;47.696;8.066;2023-05-02T12:54:23;5.13;;;4.80;;
76176;SDS011;64938;47.696;8.066;2023-05-02T12:56:50;5.90;;;5.40;;
76176;SDS011;64938;47.696;8.066;2023-05-02T12:59:25;5.20;;;4.80;;
76176;SDS011;64938;47.696;8.066;2023-05-02T13:01:52;5.77;;;5.27;;
76176;SDS011;64938;47.696;8.066;2023-05-02T13:04:18;8.43;;;7.73;;
76176;SDS011;64938;47.696;8.066;2023-05-02T13:06:43;4.50;;;4.20;;
76176;SDS011;64938;47.696;8.066;2023-05-02T13:09:09;4.43;;;4.13;;
76176;SDS011;64938;47.696;8.066;2023-05-02T13:11:34;4.73;;;4.27;;
76176;SDS011;64938;47.696;8.066;2023-05-02T13:14:00;3.43;;;3.13;;
76176;SDS011;64938;47.696;8.066;2023-05-02T13:16:29;5.27;;;4.43;;
76176;SDS011;64938;47.696;8.066;2023-05-02T13:18:54;5.10;;;4.70;;
76176;SDS011;64938;47.696;8.066;2023-05-02T13:21:20;4.97;;;4.57;;
76176;SDS011;64938;47.696;8.066;2023-05-02T13:23:48;6.27;;;4.90;;
76176;SDS011;64938;47.696;8.066;2023-05-02T13:26:15;11.33;;;5.23;;
76176;SDS011;64938;47.696;8.066;2023-05-02T13:28:41;5.40;;;4.90;;
76176;SDS011;64938;47.696;8.066;2023-05-02T13:31:08;6.13;;;5.40;;
76176;SDS011;64938;47.696;8.066;2023-05-02T13:33:33;6.87;;;6.17;;
76176;SDS011;64938;47.696;8.066;2023-05-02T13:35:59;7.20;;;6.50;;
76176;SDS011;64938;47.696;8.066;2023-05-02T13:38:25;6.47;;;5.83;;
76176;SDS011;64938;47.696;8.066;2023-05-02T13:40:51;5.93;;;5.40;;
76176;SDS011;64938;47.696;8.066;2023-05-02T13:43:18;8.27;;;7.47;;
76176;SDS011;64938;47.696;8.066;2023-05-02T13:45:43;6.80;;;6.20;;
76176;SDS011;64938;47.696;8.066;2023-05-02T13:48:11;6.47;;;5.97;;
76176;SDS011;64938;47.696;8.066;2023-05-02T13:50:36;7.90;;;7.20;;
76176;SDS011;64938;47.696;8.066;2023-05-02T13:53:03;7.33;;;6.73;;
76176;SDS011;64938;47.696;8.066;2023-05-02T13:55:28;8.60;;;6.63;;
76176;SDS011;64938;47.696;8.066;2023-05-02T13:57:54;7.27;;;6.63;;
76176;SDS011;64938;47.696;8.066;2023-05-02T14:00:19;7.17;;;6.17;;
76176;SDS011;64938;47.696;8.066;2023-05-02T14:02:45;7.70;;;6.43;;
76176;SDS011;64938;47.696;8.066;2023-05-02T14:05:12;6.20;;;5.70;;
76176;SDS011;64938;47.696;8.066;2023-05-02T14:07:39;6.47;;;5.60;;
76176;SDS011;64938;47.696;8.066;2023-05-02T14:10:05;6.83;;;6.30;;
76176;SDS011;64938;47.696;8.066;2023-05-02T14:12:31;6.67;;;6.00;;
76176;SDS011;64938;47.696;8.066;2023-05-02T14:14:57;10.27;;;9.13;;
76176;SDS011;64938;47.696;8.066;2023-05-02T14:17:22;7.97;;;7.20;;
76176;SDS011;64938;47.696;8.066;2023-05-02T14:19:51;8.67;;;7.80;;
76176;SDS011;64938;47.696;8.066;2023-05-02T14:22:16;6.60;;;6.10;;
76176;SDS011;64938;47.696;8.066;2023-05-02T14:24:43;7.77;;;6.80;;
76176;SDS011;64938;47.696;8.066;2023-05-02T14:27:08;6.20;;;5.73;;
76176;SDS011;64938;47.696;8.066;2023-05-02T14:29:40;7.10;;;6.60;;
76176;SDS011;64938;47.696;8.066;2023-05-02T14:32:05;6.50;;;6.00;;
76176;SDS011;64938;47.696;8.066;2023-05-02T14:34:31;6.40;;;5.80;;
76176;SDS011;64938;47.696;8.066;2023-05-02T14:36:56;6.43;;;5.87;;
76176;SDS011;64938;47.696;8.066;2023-05-02T14:39:22;5.90;;;5.40;;
76176;SDS011;64938;47.696;8.066;2023-05-02T14:41:47;5.80;;;5.40;;
76176;SDS011;64938;47.696;8.066;2023-05-02T14:44:13;6.50;;;5.90;;
76176;SDS011;64938;47.696;8.066;2023-05-02T14:46:38;6.40;;;5.90;;
76176;SDS011;64938;47.696;8.066;2023-05-02T14:49:04;5.50;;;5.07;;
76176;SDS011;64938;47.696;8.066;2023-05-02T14:51:32;5.60;;;5.20;;
76176;SDS011;64938;47.696;8.066;2023-05-02T14:53:57;5.20;;;4.80;;
76176;SDS011;64938;47.696;8.066;2023-05-02T14:56:23;5.20;;;4.87;;
76176;SDS011;64938;47.696;8.066;2023-05-02T14:58:50;5.10;;;4.70;;
76176;SDS011;64938;47.696;8.066;2023-05-02T15:01:19;5.50;;;5.10;;
76176;SDS011;64938;47.696;8.066;2023-05-02T15:03:45;6.53;;;5.93;;
76176;SDS011;64938;47.696;8.066;2023-05-02T15:06:11;6.10;;;5.60;;
76176;SDS011;64938;47.696;8.066;2023-05-02T15:08:38;6.07;;;5.57;;
76176;SDS011;64938;47.696;8.066;2023-05-02T15:11:03;6.03;;;5.53;;
76176;SDS011;64938;47.696;8.066;2023-05-02T15:13:30;6.03;;;5.50;;
76176;SDS011;64938;47.696;8.066;2023-05-02T15:15:56;5.93;;;5.53;;
76176;SDS011;64938;47.696;8.066;2023-05-02T15:18:22;6.80;;;6.30;;
76176;SDS011;64938;47.696;8.066;2023-05-02T15:20:47;7.07;;;6.37;;
76176;SDS011;64938;47.696;8.066;2023-05-02T15:23:13;6.97;;;6.33;;
76176;SDS011;64938;47.696;8.066;2023-05-02T15:25:38;7.13;;;6.57;;
76176;SDS011;64938;47.696;8.066;2023-05-02T15:28:04;7.07;;;6.50;;
76176;SDS011;64938;47.696;8.066;2023-05-02T15:30:29;7.10;;;6.50;;